createdAt,value
2017-05-11T00:01:57.330Z,94516.19
2017-05-11T00:04:24.272Z,94513.39
2017-05-11T00:06:51.187Z,94510.23
2017-05-11T00:09:17.366Z,94513.30
2017-05-11T00:11:43.565Z,94515.49
2017-05-11T00:14:09.754Z,94505.87
2017-05-11T00:16:35.917Z,94501.95
2017-05-11T00:19:02.171Z,94509.11
2017-05-11T00:21:28.478Z,94507.97
2017-05-11T00:23:54.657Z,94505.56
2017-05-11T00:26:21.786Z,94505.02
2017-05-11T00:28:47.969Z,94502.62
2017-05-11T00:31:14.197Z,94499.80
2017-05-11T00:33:40.369Z,94493.48
2017-05-11T00:36:06.571Z,94500.98
2017-05-11T00:38:32.734Z,94494.12
2017-05-11T00:40:58.886Z,94501.41
2017-05-11T00:43:25.045Z,94501.74
2017-05-11T00:45:51.209Z,94501.85
2017-05-11T00:48:17.462Z,94492.78
2017-05-11T00:50:43.627Z,94499.19
2017-05-11T00:53:09.843Z,94493.95
2017-05-11T00:55:36.121Z,94494.31
2017-05-11T00:58:03.037Z,94496.52
2017-05-11T01:00:29.209Z,94502.08
2017-05-11T01:02:55.593Z,94498.95
2017-05-11T01:05:21.741Z,94501.09
2017-05-11T01:07:48.141Z,94498.56
2017-05-11T01:10:16.397Z,94497.16
2017-05-11T01:12:42.545Z,94486.38
2017-05-11T01:15:08.865Z,94486.28
2017-05-11T01:17:35.747Z,94483.27
2017-05-11T01:20:02.220Z,94476.57
2017-05-11T01:22:28.501Z,94470.47
2017-05-11T01:24:54.889Z,94471.44
2017-05-11T01:27:22.394Z,94469.48
2017-05-11T01:29:48.598Z,94468.98
2017-05-11T01:32:14.846Z,94468.40
2017-05-11T01:34:41.766Z,94465.52
2017-05-11T01:37:09.064Z,94457.94
2017-05-11T01:39:35.990Z,94462.13
2017-05-11T01:42:03.177Z,94464.09
2017-05-11T01:44:29.793Z,94461.71
2017-05-11T01:46:56.962Z,94458.56
2017-05-11T01:49:25.173Z,94453.09
2017-05-11T01:51:51.378Z,94447.84
2017-05-11T01:54:18.411Z,94456.24
2017-05-11T01:56:44.712Z,94450.05
2017-05-11T01:59:11.182Z,94455.69
2017-05-11T02:01:37.495Z,94469.30
2017-05-11T02:04:03.826Z,94456.53
2017-05-11T02:06:30.018Z,94455.33
2017-05-11T02:08:57.109Z,94451.89
2017-05-11T02:11:23.246Z,94453.05
2017-05-11T02:13:49.463Z,94451.47
2017-05-11T02:16:16.188Z,94444.67
2017-05-11T02:18:42.437Z,94441.68
2017-05-11T02:21:09.998Z,94444.09
2017-05-11T02:23:36.222Z,94437.91
2017-05-11T02:26:02.677Z,94441.34
2017-05-11T02:28:29.503Z,94442.86
2017-05-11T02:30:56.732Z,94439.02
2017-05-11T02:33:24.035Z,94442.98
2017-05-11T02:35:50.266Z,94443.00
2017-05-11T02:38:17.138Z,94437.09
2017-05-11T02:40:43.877Z,94426.31
2017-05-11T02:43:10.478Z,94431.00
2017-05-11T02:45:37.955Z,94425.49
2017-05-11T02:48:04.748Z,94422.53
2017-05-11T02:50:31.753Z,94420.62
2017-05-11T02:52:58.718Z,94424.08
2017-05-11T02:55:24.958Z,94420.52
2017-05-11T02:57:51.898Z,94413.97
2017-05-11T03:00:19.161Z,94414.14
2017-05-11T03:02:45.838Z,94414.47
2017-05-11T03:05:12.561Z,94408.56
2017-05-11T03:07:38.784Z,94411.70
2017-05-11T03:10:05.020Z,94407.98
2017-05-11T03:12:32.099Z,94406.42
2017-05-11T03:14:58.400Z,94406.16
2017-05-11T03:17:25.334Z,94400.70
2017-05-11T03:19:52.402Z,94401.02
2017-05-11T03:22:18.815Z,94396.34
2017-05-11T03:24:45.150Z,94407.06
2017-05-11T03:27:12.051Z,94404.09
2017-05-11T03:29:38.228Z,94399.28
2017-05-11T03:32:05.165Z,94411.05
2017-05-11T03:34:31.499Z,94413.06
2017-05-11T03:36:57.702Z,94416.00
2017-05-11T03:39:23.906Z,94417.08
2017-05-11T03:41:50.893Z,94418.40
2017-05-11T03:44:17.036Z,94415.27
2017-05-11T03:46:43.190Z,94415.11
2017-05-11T03:49:09.386Z,94410.07
2017-05-11T03:51:35.570Z,94413.53
2017-05-11T03:54:01.730Z,94412.80
2017-05-11T03:56:28.622Z,94416.13
2017-05-11T03:58:54.809Z,94418.39
2017-05-11T04:01:33.313Z,94418.27
2017-05-11T04:03:59.664Z,94415.58
2017-05-11T04:06:26.897Z,94413.95
2017-05-11T04:08:53.139Z,94412.63
2017-05-11T04:11:19.436Z,94412.52
2017-05-11T04:13:45.606Z,94415.03
2017-05-11T04:16:11.757Z,94411.82
2017-05-11T04:18:38.698Z,94407.69
2017-05-11T04:21:05.824Z,94398.98
2017-05-11T04:23:32.073Z,94404.14
2017-05-11T04:25:58.217Z,94400.30
2017-05-11T04:28:24.377Z,94399.97
2017-05-11T04:30:51.336Z,94401.90
2017-05-11T04:33:17.578Z,94402.33
2017-05-11T04:35:43.807Z,94400.55
2017-05-11T04:38:09.988Z,94397.16
2017-05-11T04:40:36.452Z,94395.19
2017-05-11T04:43:05.992Z,94401.89
2017-05-11T04:45:32.291Z,94397.91
2017-05-11T04:47:58.606Z,94400.55
2017-05-11T04:50:24.857Z,94401.17
2017-05-11T04:52:51.006Z,94390.95
2017-05-11T04:55:19.030Z,94389.20
2017-05-11T04:57:45.271Z,94389.77
2017-05-11T05:00:11.443Z,94388.80
2017-05-11T05:02:38.430Z,94388.53
2017-05-11T05:05:04.617Z,94388.31
2017-05-11T05:07:31.544Z,94381.81
2017-05-11T05:09:57.721Z,94377.15
2017-05-11T05:12:24.621Z,94380.64
2017-05-11T05:14:50.764Z,94374.05
2017-05-11T05:17:16.893Z,94376.34
2017-05-11T05:19:43.058Z,94374.38
2017-05-11T05:22:09.950Z,94384.99
2017-05-11T05:24:36.134Z,94385.25
2017-05-11T05:27:03.097Z,94378.64
2017-05-11T05:29:30.043Z,94379.23
2017-05-11T05:31:57.035Z,94378.33
2017-05-11T05:34:23.230Z,94378.17
2017-05-11T05:36:50.121Z,94377.81
2017-05-11T05:39:16.277Z,94371.30
2017-05-11T05:41:43.247Z,94384.82
2017-05-11T05:44:09.414Z,94373.06
2017-05-11T05:46:35.677Z,94375.27
2017-05-11T05:49:01.854Z,94368.16
2017-05-11T05:51:28.044Z,94370.70
2017-05-11T05:53:54.190Z,94364.09
2017-05-11T05:56:20.353Z,94366.27
2017-05-11T05:58:47.239Z,94362.47
2017-05-11T06:01:13.438Z,94365.51
2017-05-11T06:03:40.423Z,94364.80
2017-05-11T06:06:07.395Z,94363.00
2017-05-11T06:08:33.617Z,94355.27
2017-05-11T06:10:59.793Z,94353.11
2017-05-11T06:13:25.961Z,94358.84
2017-05-11T06:15:52.883Z,94353.04
2017-05-11T06:18:19.020Z,94355.77
2017-05-11T06:20:45.938Z,94354.39
2017-05-11T06:23:12.093Z,94358.80
2017-05-11T06:25:38.247Z,94357.94
2017-05-11T06:28:05.409Z,94350.88
2017-05-11T06:30:32.367Z,94346.98
2017-05-11T06:32:58.537Z,94346.44
2017-05-11T06:35:24.734Z,94341.55
2017-05-11T06:37:50.923Z,94343.66
2017-05-11T06:40:17.198Z,94341.87
2017-05-11T06:42:44.093Z,94338.81
2017-05-11T06:45:10.261Z,94337.02
2017-05-11T06:47:37.147Z,94334.80
2017-05-11T06:50:03.366Z,94333.41
2017-05-11T06:52:29.530Z,94334.96
2017-05-11T06:54:55.739Z,94339.53
2017-05-11T06:57:22.526Z,94339.80
2017-05-11T06:59:48.669Z,94334.89
2017-05-11T07:02:14.816Z,94330.38
2017-05-11T07:04:40.957Z,94326.87
2017-05-11T07:07:08.232Z,94327.64
2017-05-11T07:09:34.516Z,94326.48
2017-05-11T07:12:00.802Z,94329.18
2017-05-11T07:14:27.821Z,94324.56
2017-05-11T07:16:54.820Z,94320.14
2017-05-11T07:19:21.524Z,94321.39
2017-05-11T07:21:47.710Z,94317.98
2017-05-11T07:24:14.865Z,94314.16
2017-05-11T07:26:41.060Z,94310.30
2017-05-11T07:29:07.954Z,94308.81
2017-05-11T07:31:34.937Z,94316.36
2017-05-11T07:34:01.106Z,94304.36
2017-05-11T07:36:28.091Z,94305.48
2017-05-11T07:38:54.294Z,94307.41
2017-05-11T07:41:20.459Z,94305.33
2017-05-11T07:43:46.613Z,94301.23
2017-05-11T07:46:12.826Z,94298.72
2017-05-11T07:48:39.054Z,94292.08
2017-05-11T07:51:06.048Z,94297.13
2017-05-11T07:53:32.215Z,94297.06
2017-05-11T07:55:59.090Z,94291.80
2017-05-11T07:58:25.290Z,94290.56
2017-05-11T08:00:52.205Z,94291.95
2017-05-11T08:03:18.448Z,94283.73
2017-05-11T08:05:44.718Z,94282.47
2017-05-11T08:08:15.997Z,94282.89
2017-05-11T08:10:42.483Z,94278.00
2017-05-11T08:13:08.671Z,94272.34
2017-05-11T08:15:34.878Z,94272.54
2017-05-11T08:18:01.034Z,94268.25
2017-05-11T08:20:27.298Z,94267.68
2017-05-11T08:22:54.318Z,94266.31
2017-05-11T08:25:20.508Z,94259.23
2017-05-11T08:27:47.418Z,94260.14
2017-05-11T08:30:13.598Z,94263.70
2017-05-11T08:32:40.543Z,94259.41
2017-05-11T08:35:07.462Z,94264.20
2017-05-11T08:37:35.109Z,94259.27
2017-05-11T08:40:01.267Z,94248.50
2017-05-11T08:42:32.248Z,94254.74
2017-05-11T08:44:59.195Z,94250.18
2017-05-11T08:47:26.281Z,94245.16
2017-05-11T08:49:52.486Z,94240.75
2017-05-11T08:52:19.738Z,94243.28
2017-05-11T08:54:46.680Z,94243.94
2017-05-11T08:57:13.606Z,94237.13
2017-05-11T08:59:41.307Z,94236.25
2017-05-11T09:02:08.198Z,94238.34
2017-05-11T09:04:34.425Z,94233.83
2017-05-11T09:07:00.589Z,94229.78
2017-05-11T09:09:26.753Z,94223.55
2017-05-11T09:11:53.758Z,94219.25
2017-05-11T09:14:19.894Z,94214.98
2017-05-11T09:16:46.173Z,94204.08
2017-05-11T09:19:13.059Z,94200.66
2017-05-11T09:21:39.237Z,94192.11
2017-05-11T09:24:09.967Z,94189.47
2017-05-11T09:26:37.945Z,94187.13
2017-05-11T09:29:04.196Z,94186.40
2017-05-11T09:31:31.154Z,94183.59
2017-05-11T09:33:58.029Z,94170.81
2017-05-11T09:36:24.220Z,94182.98
2017-05-11T09:38:51.190Z,94179.22
2017-05-11T09:41:18.198Z,94179.47
2017-05-11T09:43:44.489Z,94176.36
2017-05-11T09:46:10.756Z,94180.05
2017-05-11T09:48:36.925Z,94181.86
2017-05-11T09:51:03.888Z,94178.86
2017-05-11T09:53:30.850Z,94168.45
2017-05-11T09:55:57.782Z,94173.09
2017-05-11T09:58:24.694Z,94162.89
2017-05-11T10:00:50.888Z,94164.84
2017-05-11T10:03:17.866Z,94163.13
2017-05-11T10:05:51.839Z,94157.09
2017-05-11T10:08:18.813Z,94147.67
2017-05-11T10:10:45.046Z,94141.42
2017-05-11T10:13:11.180Z,94136.12
2017-05-11T10:15:38.146Z,94136.05
2017-05-11T10:18:04.525Z,94136.67
2017-05-11T10:20:30.779Z,94132.99
2017-05-11T10:22:57.714Z,94129.16
2017-05-11T10:25:23.998Z,94129.84
2017-05-11T10:27:50.901Z,94117.61
2017-05-11T10:30:17.093Z,94115.75
2017-05-11T10:32:43.250Z,94119.00
2017-05-11T10:35:09.525Z,94117.34
2017-05-11T10:37:35.762Z,94114.00
2017-05-11T10:40:01.980Z,94109.05
2017-05-11T10:42:28.937Z,94111.03
2017-05-11T10:44:55.870Z,94112.50
2017-05-11T10:47:22.109Z,94105.62
2017-05-11T10:49:48.253Z,94102.39
2017-05-11T10:52:15.210Z,94100.20
2017-05-11T10:54:41.418Z,94099.02
2017-05-11T10:57:07.649Z,94090.77
2017-05-11T10:59:34.830Z,94091.30
2017-05-11T11:02:01.726Z,94091.21
2017-05-11T11:04:28.742Z,94084.02
2017-05-11T11:06:55.026Z,94071.58
2017-05-11T11:09:21.206Z,94078.63
2017-05-11T11:11:47.454Z,94080.02
2017-05-11T11:14:13.621Z,94075.03
2017-05-11T11:16:39.819Z,94078.23
2017-05-11T11:19:06.763Z,94070.33
2017-05-11T11:21:33.041Z,94068.33
2017-05-11T11:23:59.223Z,94064.25
2017-05-11T11:26:26.170Z,94071.07
2017-05-11T11:28:53.118Z,94063.81
2017-05-11T11:31:20.073Z,94056.99
2017-05-11T11:33:47.021Z,94054.23
2017-05-11T11:36:13.974Z,94045.22
2017-05-11T11:38:40.854Z,94047.16
2017-05-11T11:41:07.207Z,94045.31
2017-05-11T11:43:33.394Z,94044.36
2017-05-11T11:46:00.490Z,94035.01
2017-05-11T11:48:26.671Z,94039.47
2017-05-11T11:50:53.614Z,94036.72
2017-05-11T11:53:19.842Z,94038.11
2017-05-11T11:55:46.824Z,94037.12
2017-05-11T11:58:13.772Z,94034.58
2017-05-11T12:00:40.689Z,94030.67
2017-05-11T12:03:06.838Z,94036.37
2017-05-11T12:05:33.821Z,94034.91
2017-05-11T12:08:00.230Z,94031.86
2017-05-11T12:10:27.118Z,94022.56
2017-05-11T12:12:53.339Z,94025.23
2017-05-11T12:15:19.754Z,94017.37
2017-05-11T12:17:46.668Z,94015.84
2017-05-11T12:20:12.841Z,94011.45
2017-05-11T12:22:39.799Z,94010.69
2017-05-11T12:25:06.750Z,93999.94
2017-05-11T12:27:33.649Z,93995.35
2017-05-11T12:29:59.859Z,93986.67
2017-05-11T12:32:26.041Z,93992.16
2017-05-11T12:34:52.210Z,93985.98
2017-05-11T12:37:18.475Z,93985.45
2017-05-11T12:39:44.654Z,93980.61
2017-05-11T12:42:11.585Z,93987.66
2017-05-11T12:44:37.834Z,93976.48
2017-05-11T12:47:04.118Z,93975.02
2017-05-11T12:49:30.318Z,93970.81
2017-05-11T12:51:57.215Z,93968.77
2017-05-11T12:54:23.502Z,93966.33
2017-05-11T12:56:50.458Z,93965.71
2017-05-11T12:59:17.410Z,93969.69
2017-05-11T13:01:44.375Z,93963.03
2017-05-11T13:04:11.338Z,93959.15
2017-05-11T13:06:37.543Z,93959.30
2017-05-11T13:09:04.505Z,93960.84
2017-05-11T13:11:30.671Z,93954.45
2017-05-11T13:13:57.937Z,93965.30
2017-05-11T13:16:24.114Z,93948.70
2017-05-11T13:18:51.158Z,93947.92
2017-05-11T13:21:18.505Z,93944.22
2017-05-11T13:23:44.813Z,93943.25
2017-05-11T13:26:11.251Z,93941.05
2017-05-11T13:28:38.649Z,93942.95
2017-05-11T13:31:05.642Z,93936.41
2017-05-11T13:33:32.601Z,93931.43
2017-05-11T13:35:58.791Z,93930.09
2017-05-11T13:38:25.766Z,93928.22
2017-05-11T13:40:51.969Z,93927.78
2017-05-11T13:43:18.215Z,93914.67
2017-05-11T13:45:45.163Z,93908.97
2017-05-11T13:48:12.101Z,93907.29
2017-05-11T13:50:38.359Z,93909.73
2017-05-11T13:53:05.286Z,93900.30
2017-05-11T13:55:31.509Z,93902.34
2017-05-11T13:57:57.767Z,93899.42
2017-05-11T14:00:24.670Z,93902.27
2017-05-11T14:02:50.868Z,93892.84
2017-05-11T14:05:17.816Z,93894.96
2017-05-11T14:07:44.026Z,93893.41
2017-05-11T14:10:10.295Z,93887.30
2017-05-11T14:12:36.475Z,93888.60
2017-05-11T14:15:03.484Z,93887.38
2017-05-11T14:17:29.822Z,93882.33
2017-05-11T14:19:56.015Z,93871.33
2017-05-11T14:22:22.302Z,93870.45
2017-05-11T14:24:48.498Z,93864.06
2017-05-11T14:27:14.737Z,93865.23
2017-05-11T14:29:41.632Z,93867.63
2017-05-11T14:32:08.641Z,93858.22
2017-05-11T14:34:36.612Z,93855.84
2017-05-11T14:37:03.598Z,93852.69
2017-05-11T14:39:30.640Z,93850.27
2017-05-11T14:41:57.571Z,93855.30
2017-05-11T14:44:23.782Z,93854.73
2017-05-11T14:46:50.062Z,93852.73
2017-05-11T14:49:16.275Z,93846.18
2017-05-11T14:51:43.216Z,93840.75
2017-05-11T14:54:10.167Z,93839.91
2017-05-11T14:56:37.144Z,93831.53
2017-05-11T14:59:03.295Z,93829.69
2017-05-11T15:01:29.579Z,93838.39
2017-05-11T15:03:56.546Z,93837.70
2017-05-11T15:06:23.499Z,93835.50
2017-05-11T15:08:49.724Z,93844.17
2017-05-11T15:11:16.682Z,93837.09
2017-05-11T15:13:43.658Z,93840.48
2017-05-11T15:16:09.878Z,93841.73
2017-05-11T15:18:36.194Z,93843.80
2017-05-11T15:21:03.153Z,93840.09
2017-05-11T15:23:30.101Z,93837.02
2017-05-11T15:25:59.086Z,93832.28
2017-05-11T15:28:26.038Z,93845.59
2017-05-11T15:30:53.004Z,93853.50
2017-05-11T15:33:19.998Z,93880.81
2017-05-11T15:35:47.005Z,93858.80
2017-05-11T15:38:13.970Z,93861.12
2017-05-11T15:40:40.249Z,93849.09
2017-05-11T15:43:06.502Z,93847.21
2017-05-11T15:45:33.494Z,93846.23
2017-05-11T15:47:59.693Z,93839.97
2017-05-11T15:50:25.925Z,93836.71
2017-05-11T15:52:52.175Z,93841.19
2017-05-11T15:55:19.135Z,93849.26
2017-05-11T15:57:45.364Z,93843.56
2017-05-11T16:00:11.653Z,93849.81
2017-05-11T16:02:38.658Z,93860.11
2017-05-11T16:05:04.862Z,93848.34
2017-05-11T16:07:31.819Z,93848.67
2017-05-11T16:09:58.812Z,93856.41
2017-05-11T16:12:25.085Z,93854.83
2017-05-11T16:14:51.261Z,93856.77
2017-05-11T16:17:17.422Z,93866.33
2017-05-11T16:19:44.538Z,93864.80
2017-05-11T16:22:11.623Z,93865.11
2017-05-11T16:24:37.834Z,93866.63
2017-05-11T16:27:04.795Z,93870.63
2017-05-11T16:29:30.942Z,93866.07
2017-05-11T16:31:57.830Z,93862.86
2017-05-11T16:34:24.019Z,93863.00
2017-05-11T16:36:50.157Z,93853.73
2017-05-11T16:39:16.317Z,93836.56
2017-05-11T16:41:48.292Z,93820.37
2017-05-11T16:44:15.921Z,93822.33
2017-05-11T16:46:42.109Z,93830.76
2017-05-11T16:49:08.381Z,93829.72
2017-05-11T16:51:34.639Z,93827.56
2017-05-11T16:54:01.630Z,93835.22
2017-05-11T16:56:28.602Z,93820.81
2017-05-11T16:58:55.593Z,93823.61
2017-05-11T17:01:21.774Z,93825.25
2017-05-11T17:03:48.729Z,93826.34
2017-05-11T17:06:15.685Z,93820.86
2017-05-11T17:08:42.886Z,93824.23
2017-05-11T17:11:09.894Z,93825.72
2017-05-11T17:13:36.830Z,93825.33
2017-05-11T17:16:03.737Z,93826.01
2017-05-11T17:18:30.638Z,93829.70
2017-05-11T17:20:57.537Z,93830.67
2017-05-11T17:23:30.496Z,93832.80
2017-05-11T17:25:56.665Z,93819.55
2017-05-11T17:28:24.394Z,93828.96
2017-05-11T17:30:50.542Z,93820.84
2017-05-11T17:33:17.457Z,93821.66
2017-05-11T17:35:44.358Z,93824.63
2017-05-11T17:38:10.520Z,93821.70
2017-05-11T17:40:38.285Z,93822.59
2017-05-11T17:43:04.486Z,93827.03
2017-05-11T17:45:30.737Z,93827.77
2017-05-11T17:47:56.885Z,93824.63
2017-05-11T17:50:23.060Z,93829.52
2017-05-11T17:52:49.278Z,93824.53
2017-05-11T17:55:17.242Z,93817.95
2017-05-11T17:57:43.393Z,93818.91
2017-05-11T18:00:09.558Z,93812.95
2017-05-11T18:02:35.713Z,93813.88
2017-05-11T18:05:01.924Z,93807.99
2017-05-11T18:07:28.261Z,93815.34
2017-05-11T18:09:54.438Z,93812.63
2017-05-11T18:12:20.606Z,93813.93
2017-05-11T18:14:46.764Z,93817.77
2017-05-11T18:17:12.940Z,93816.23
2017-05-11T18:19:39.193Z,93825.41
2017-05-11T18:22:06.351Z,93825.34
2017-05-11T18:24:33.352Z,93829.13
2017-05-11T18:26:59.534Z,93823.19
2017-05-11T18:29:26.432Z,93825.36
2017-05-11T18:31:52.628Z,93831.44
2017-05-11T18:34:19.053Z,93826.27
2017-05-11T18:36:45.943Z,93825.94
2017-05-11T18:39:12.102Z,93829.23
2017-05-11T18:41:38.330Z,93826.72
2017-05-11T18:44:04.513Z,93825.91
2017-05-11T18:46:31.416Z,93830.10
2017-05-11T18:48:58.311Z,93828.00
2017-05-11T18:51:24.492Z,93832.11
2017-05-11T18:53:50.727Z,93836.61
2017-05-11T18:56:16.948Z,93837.87
2017-05-11T18:58:43.118Z,93834.55
2017-05-11T19:01:09.338Z,93835.13
2017-05-11T19:03:35.563Z,93845.82
2017-05-11T19:06:02.642Z,93850.42
2017-05-11T19:08:29.665Z,93844.31
2017-05-11T19:10:55.986Z,93853.08
2017-05-11T19:13:22.141Z,93853.14
2017-05-11T19:15:48.441Z,93856.08
2017-05-11T19:18:14.598Z,93854.92
2017-05-11T19:20:40.774Z,93862.35
2017-05-11T19:23:07.769Z,93861.62
2017-05-11T19:25:33.975Z,93864.91
2017-05-11T19:28:00.185Z,93868.34
2017-05-11T19:30:26.378Z,93869.22
2017-05-11T19:32:52.566Z,93874.91
2017-05-11T19:35:19.531Z,93875.06
2017-05-11T19:37:46.407Z,93872.28
2017-05-11T19:40:12.642Z,93878.05
2017-05-11T19:42:38.854Z,93879.63
2017-05-11T19:45:05.104Z,93882.19
2017-05-11T19:47:31.361Z,93882.55
2017-05-11T19:49:57.535Z,93888.53
2017-05-11T19:52:23.705Z,93888.03
2017-05-11T19:54:49.896Z,93892.92
2017-05-11T19:57:17.138Z,93896.05
2017-05-11T19:59:43.483Z,93893.94
2017-05-11T20:02:09.828Z,93895.03
2017-05-11T20:04:36.023Z,93903.53
2017-05-11T20:07:02.211Z,93902.76
2017-05-11T20:09:28.434Z,93902.91
2017-05-11T20:11:56.631Z,93906.25
2017-05-11T20:14:22.917Z,93912.75
2017-05-11T20:16:49.087Z,93916.11
2017-05-11T20:19:15.994Z,93920.94
2017-05-11T20:21:42.147Z,93914.00
2017-05-11T20:24:08.423Z,93914.44
2017-05-11T20:26:34.618Z,93918.09
2017-05-11T20:29:01.076Z,93914.66
2017-05-11T20:31:27.265Z,93914.56
2017-05-11T20:33:54.168Z,93915.58
2017-05-11T20:36:20.406Z,93924.49
2017-05-11T20:38:47.348Z,93926.22
2017-05-11T20:41:13.558Z,93926.28
2017-05-11T20:43:39.847Z,93929.56
2017-05-11T20:46:06.011Z,93931.23
2017-05-11T20:48:32.318Z,93924.80
2017-05-11T20:50:58.509Z,93924.29
2017-05-11T20:53:25.462Z,93925.64
2017-05-11T20:55:52.422Z,93923.23
2017-05-11T20:58:19.378Z,93923.14
2017-05-11T21:00:45.525Z,93926.58
2017-05-11T21:03:11.686Z,93931.37
2017-05-11T21:05:37.842Z,93935.62
2017-05-11T21:08:04.120Z,93938.45
2017-05-11T21:10:30.262Z,93941.57
2017-05-11T21:12:57.170Z,93937.22
2017-05-11T21:15:24.298Z,93946.75
2017-05-11T21:17:50.474Z,93939.02
2017-05-11T21:20:17.907Z,93936.52
2017-05-11T21:22:44.079Z,93937.02
2017-05-11T21:25:10.942Z,93945.94
2017-05-11T21:27:37.125Z,93946.22
2017-05-11T21:30:03.378Z,93949.42
2017-05-11T21:32:30.278Z,93941.31
2017-05-11T21:34:57.186Z,93938.61
2017-05-11T21:37:24.086Z,93945.36
2017-05-11T21:39:50.316Z,93945.83
2017-05-11T21:42:16.481Z,93952.81
2017-05-11T21:44:43.378Z,93960.16
2017-05-11T21:47:09.523Z,93958.91
2017-05-11T21:49:35.674Z,93959.00
2017-05-11T21:52:01.910Z,93966.81
2017-05-11T21:54:28.483Z,93975.86
2017-05-11T21:56:54.927Z,93984.48
2017-05-11T21:59:21.835Z,93981.25
2017-05-11T22:01:48.004Z,93979.94
2017-05-11T22:04:14.894Z,93978.47
2017-05-11T22:06:41.038Z,93979.68
2017-05-11T22:09:07.488Z,93978.98
2017-05-11T22:11:33.653Z,93984.34
2017-05-11T22:14:00.567Z,93990.53
2017-05-11T22:16:26.725Z,93995.08
2017-05-11T22:18:53.085Z,93997.01
2017-05-11T22:21:19.979Z,93995.33
2017-05-11T22:23:46.110Z,93994.59
2017-05-11T22:26:12.242Z,93997.50
2017-05-11T22:28:38.394Z,93986.91
2017-05-11T22:31:04.582Z,93985.31
2017-05-11T22:33:30.912Z,93984.33
2017-05-11T22:35:57.114Z,93991.61
2017-05-11T22:38:23.410Z,94005.95
2017-05-11T22:40:49.546Z,94001.15
2017-05-11T22:43:15.694Z,94001.78
2017-05-11T22:45:41.918Z,93997.80
2017-05-11T22:48:08.088Z,93991.36
2017-05-11T22:50:34.958Z,93987.28
2017-05-11T22:53:01.877Z,93995.37
2017-05-11T22:55:28.033Z,94003.51
2017-05-11T22:57:54.957Z,94004.15
2017-05-11T23:00:21.116Z,93999.45
2017-05-11T23:02:47.258Z,93992.73
2017-05-11T23:05:13.419Z,94012.26
2017-05-11T23:07:39.582Z,94018.29
2017-05-11T23:10:05.818Z,93980.11
2017-05-11T23:12:32.091Z,93984.25
2017-05-11T23:14:58.231Z,93992.30
2017-05-11T23:17:24.398Z,93985.50
2017-05-11T23:19:50.543Z,93965.91
2017-05-11T23:22:16.714Z,93960.27
2017-05-11T23:24:43.594Z,93953.72
2017-05-11T23:27:09.798Z,93965.47
2017-05-11T23:29:36.679Z,93968.65
2017-05-11T23:32:02.829Z,93969.58
2017-05-11T23:34:29.106Z,93992.02
2017-05-11T23:36:56.123Z,93998.45
2017-05-11T23:39:22.294Z,94005.34
2017-05-11T23:41:48.477Z,94009.64
2017-05-11T23:44:14.649Z,94015.57
2017-05-11T23:46:41.568Z,94020.03
2017-05-11T23:49:08.749Z,94025.55
2017-05-11T23:51:34.895Z,94017.19
2017-05-11T23:54:01.825Z,94014.95
2017-05-11T23:56:27.978Z,94015.47
2017-05-11T23:58:59.585Z,94013.40
